Latest Weather Observations for Central Arnhem Plateau

IDD60801

Issued at 2:35 pm CST Tuesday 21 October 2014 (issued every 30 minutes, with the page automatically refreshed every 10 minutes)

About weather observations | Map of weather stations | Latest weather observations for NT | Other Formats
Station Details ID: 014909 Name: CENTRAL ARNHEM PLATEAU Lat: -13.33 Lon: 133.09 Height: 416.0 m
Data from the previous 72 hours. | See also: Recent months for locations in Northern Territory
Date/Time
CST
Temp
°C
App
Temp
°C
Dew
Point
Rel
Hum
%
Delta-T
°C
Wind Press
QNH
hPa
Press
MSL
hPa
Rain
since 9 am
mm
Dir
 
Spd
km/h
Gust
km/h
Spd
kts
Gust
kts
21/02:30pm 33.2 28.1 4.0 16 15.5 SSE 20 33 11 18 1013.9 1010.8 0.0
21/02:00pm 33.0 28.6 4.7 17 15.2 ENE 17 26 9 14 1014.3 1011.2 0.0
21/01:30pm 32.6 26.0 4.4 17 15.0 SE 28 43 15 23 1015.1 1012.1 0.0
21/01:28pm 33.6 27.0 4.3 16 15.7 SE 28 43 15 23 1015.1 1012.1 0.0
21/01:00pm 33.0 29.5 5.5 18 14.9 S 13 24 7 13 1015.6 1012.6 0.0
21/12:30pm 33.1 28.1 6.4 19 14.7 E 22 32 12 17 1016.3 1013.3 0.0
21/12:00pm 33.0 27.8 5.5 18 14.9 ESE 22 32 12 17 1017.1 1014.1 0.0
21/11:30am 31.1 25.9 5.5 20 13.8 ESE 22 32 12 17 1017.5 1014.5 0.0
21/11:00am 30.9 25.3 5.3 20 13.7 ESE 24 35 13 19 1017.7 1014.7 0.0
21/10:30am 30.4 26.3 6.3 22 13.1 ENE 17 22 9 12 1018.1 1015.1 0.0
21/10:00am 28.7 24.5 8.4 28 11.3 E 20 35 11 19 1018.4 1015.4 0.0
21/09:30am 28.7 26.9 10.8 33 10.4 E 11 17 6 9 1018.5 1015.5 0.0
21/09:00am 27.2 25.5 10.0 34 9.8 E 9 19 5 10 1018.5 1015.5 0.0
21/08:30am 26.5 26.0 12.2 41 8.4 SE 6 11 3 6 1018.5 1015.5 0.0
21/08:00am 25.3 25.1 12.9 46 7.3 SW 6 9 3 5 1018.3 1015.3 0.0
21/07:30am 24.3 24.7 14.7 55 5.8 NNW 6 11 3 6 1018.0 1015.0 0.0
21/07:00am 23.1 23.8 15.7 63 4.5 W 6 9 3 5 1017.5 1014.5 0.0
21/06:30am 21.2 21.7 15.1 68 3.7 W 6 7 3 4 1017.1 1014.1 0.0
21/06:00am 20.8 22.6 15.4 71 3.3 CALM 0 0 0 0 1016.8 1013.8 0.0
21/05:30am 21.9 22.5 15.3 66 4.0 ENE 6 9 3 5 1016.2 1013.2 0.0
21/05:00am 22.1 22.5 15.2 65 4.2 NE 7 9 4 5 1015.9 1012.9 0.0
21/04:30am 22.4 21.9 14.8 62 4.6 ENE 11 15 6 8 1015.5 1012.5 0.0
21/04:00am 22.8 22.0 14.1 58 5.2 ENE 11 15 6 8 1015.3 1012.3 0.0
21/03:30am 23.1 22.2 13.6 55 5.6 NE 11 13 6 7 1015.1 1012.1 0.0
21/03:00am 23.8 22.5 13.6 52 6.1 NE 13 20 7 11 1015.3 1012.3 0.0
21/02:30am 24.3 22.8 13.2 50 6.6 NE 13 15 7 8 1015.7 1012.7 0.0
21/02:00am 24.9 23.1 12.2 45 7.4 E 13 19 7 10 1015.9 1012.9 0.0
21/01:30am 25.5 22.7 11.3 41 8.2 E 17 24 9 13 1016.1 1013.1 0.0
21/01:00am 26.0 22.9 10.2 37 9.0 E 17 20 9 11 1016.6 1013.5 0.0
21/12:30am 26.4 23.1 9.7 35 9.4 E 17 22 9 12 1017.0 1014.0 0.0
21/12:00am 26.5 23.9 9.4 34 9.6 E 13 17 7 9 1017.0 1014.0 0.0
 
Date/Time
CST
Temp
°C
App
Temp
°C
Dew
Point
Rel
Hum
%
Delta-T
°C
Wind Press
QNH
hPa
Press
MSL
hPa
Rain
since 9 am
mm
Dir
 
Spd
km/h
Gust
km/h
Spd
kts
Gust
kts
20/11:30pm 27.2 24.2 9.1 32 10.1 ESE 15 19 8 10 1017.1 1014.1 0.0
20/11:00pm 28.0 24.3 9.3 31 10.5 E 19 26 10 14 1017.2 1014.2 0.0
20/10:30pm 28.2 24.6 8.5 29 11.0 E 17 22 9 12 1016.9 1013.9 0.0
20/10:00pm 28.4 25.9 8.1 28 11.2 E 11 15 6 8 1016.6 1013.5 0.0
20/09:30pm 28.9 25.7 6.9 25 12.0 E 13 17 7 9 1015.8 1012.8 0.0
20/09:00pm 29.5 26.9 6.2 23 12.6 ESE 9 13 5 7 1015.4 1012.4 0.0
20/08:30pm 29.8 27.1 5.8 22 12.9 ESE 9 9 5 5 1014.9 1011.9 0.0
20/08:00pm 30.3 28.0 5.6 21 13.2 E 7 9 4 5 1014.4 1011.3 0.0
20/07:30pm 30.8 28.4 5.3 20 13.6 ESE 7 11 4 6 1014.0 1010.9 0.0
20/07:00pm 31.5 27.9 5.1 19 14.1 E 13 20 7 11 1013.5 1010.5 0.0
20/06:30pm 32.2 28.6 4.9 18 14.6 ESE 13 19 7 10 1013.1 1010.1 0.0
20/06:00pm 32.9 27.4 3.8 16 15.4 E 22 28 12 15 1012.7 1009.7 0.0
20/05:30pm 33.4 28.3 3.3 15 15.8 ENE 19 33 10 18 1012.4 1009.4 0.0
20/05:00pm 33.8 28.6 3.6 15 16.0 E 20 26 11 14 1012.2 1009.1 0.0
20/04:30pm 34.6 29.3 3.2 14 16.6 E 20 28 11 15 1012.1 1009.0 0.0
20/04:00pm 33.9 28.7 3.6 15 16.0 E 20 30 11 16 1012.2 1009.1 0.0
20/03:30pm 34.3 28.2 3.0 14 16.5 E 24 33 13 18 1012.3 1009.3 0.0
20/03:00pm 34.8 28.8 3.4 14 16.7 ESE 24 30 13 16 1012.6 1009.6 0.0
20/02:30pm 34.0 27.7 3.7 15 16.1 ENE 26 33 14 18 1012.8 1009.8 0.0
20/02:00pm 33.8 28.6 3.6 15 16.0 E 20 32 11 17 1013.4 1010.4 0.0
20/01:30pm 33.8 28.2 3.6 15 16.0 ESE 22 32 12 17 1014.1 1011.0 0.0
20/01:00pm 33.6 28.7 4.3 16 15.7 ESE 19 24 10 13 1014.6 1011.6 0.0
20/12:30pm 32.8 26.9 3.7 16 15.3 ESE 24 35 13 19 1015.4 1012.4 0.0
20/12:00pm 32.4 27.3 4.2 17 14.9 E 20 39 11 21 1015.9 1012.9 0.0
20/11:30am 32.3 26.3 3.3 16 15.1 E 24 41 13 22 1016.6 1013.5 0.0
20/11:00am 31.6 25.1 2.7 16 14.9 ENE 26 39 14 21 1016.8 1013.8 0.0
20/10:30am 31.1 24.6 0.5 14 15.1 E 24 39 13 21 1017.1 1014.1 0.0
20/10:00am 30.6 22.9 0.1 14 14.9 E 30 39 16 21 1017.6 1014.6 0.0
20/09:30am 29.8 23.2 2.1 17 13.9 E 26 39 14 21 1017.8 1014.8 0.0
20/09:00am 28.8 23.6 5.6 23 12.3 ESE 22 35 12 19 1017.7 1014.7 0.0
20/08:30am 26.6 24.5 12.3 41 8.4 E 15 20 8 11 1017.6 1014.6 0.0
20/08:00am 24.2 23.5 15.4 58 5.4 ESE 13 17 7 9 1017.5 1014.5 0.0
20/07:30am 22.8 22.7 16.1 66 4.1 ESE 11 15 6 8 1017.2 1014.2 0.0
20/07:00am 22.1 21.9 15.7 67 3.9 ESE 11 17 6 9 1016.9 1013.9 0.0
20/06:30am 21.8 22.2 15.4 67 3.9 E 7 11 4 6 1016.7 1013.7 0.0
20/06:00am 21.2 21.5 14.6 66 3.9 E 6 7 3 4 1016.3 1013.3 0.0
20/05:30am 21.7 23.2 14.6 64 4.2 CALM 0 0 0 0 1016.0 1013.0 0.0
20/05:00am 22.0 23.3 15.1 65 4.2 NNW 2 6 1 3 1015.7 1012.7 0.0
20/04:30am 22.6 23.2 15.4 64 4.4 NE 6 7 3 4 1015.3 1012.3 0.0
20/04:00am 23.0 23.4 15.3 62 4.7 NNE 7 9 4 5 1015.1 1012.1 0.0
20/03:30am 24.0 24.9 16.0 61 4.9 ENE 6 9 3 5 1015.1 1012.1 0.0
20/03:00am 23.9 24.8 16.2 62 4.8 NE 6 9 3 5 1014.9 1011.9 0.0
20/02:30am 24.3 24.5 16.8 63 4.7 ENE 11 19 6 10 1014.9 1011.9 0.0
20/02:00am 24.9 24.0 16.9 61 5.0 E 17 24 9 13 1015.4 1012.4 0.0
20/01:30am 25.3 23.8 16.4 57 5.6 E 19 30 10 16 1015.6 1012.6 0.0
20/01:00am 26.0 23.7 15.7 53 6.4 E 22 30 12 16 1015.7 1012.7 0.0
20/12:30am 26.6 24.6 15.0 49 7.1 E 19 26 10 14 1016.1 1013.1 0.0
20/12:00am 27.0 25.3 15.7 50 7.0 E 19 24 10 13 1016.5 1013.4 0.0
 
Date/Time
CST
Temp
°C
App
Temp
°C
Dew
Point
Rel
Hum
%
Delta-T
°C
Wind Press
QNH
hPa
Press
MSL
hPa
Rain
since 9 am
mm
Dir
 
Spd
km/h
Gust
km/h
Spd
kts
Gust
kts
19/11:30pm 27.2 25.1 16.2 51 6.9 ESE 22 28 12 15 1016.7 1013.7 0.0
19/11:00pm 27.8 25.3 15.1 46 7.8 ESE 22 33 12 18 1016.7 1013.7 0.0
19/10:30pm 28.9 25.2 9.6 30 11.0 E 19 32 10 17 1016.3 1013.3 0.0
19/10:00pm 29.0 26.2 8.7 28 11.4 E 13 20 7 11 1015.9 1012.9 0.0
19/09:30pm 29.4 27.4 8.5 27 11.7 ESE 9 13 5 7 1015.5 1012.5 0.0
19/09:00pm 29.8 27.7 8.2 26 12.1 ESE 9 11 5 6 1015.1 1012.1 0.0
19/08:30pm 30.5 28.3 7.7 24 12.7 E 9 11 5 6 1014.8 1011.8 0.0
19/08:00pm 30.8 28.2 7.9 24 12.8 ESE 11 13 6 7 1014.4 1011.3 0.0
19/07:30pm 31.2 28.2 7.6 23 13.1 E 13 17 7 9 1013.9 1010.8 0.0
19/07:00pm 31.8 28.8 7.5 22 13.6 E 13 17 7 9 1013.5 1010.5 0.0
19/06:30pm 32.4 28.5 7.3 21 14.0 ESE 17 20 9 11 1013.1 1010.1 0.0
19/06:00pm 33.1 28.8 7.1 20 14.5 ESE 19 26 10 14 1012.8 1009.8 0.0
19/05:30pm 33.8 30.4 7.7 20 14.7 ESE 15 20 8 11 1012.5 1009.5 0.0
19/05:00pm 34.2 30.3 7.3 19 15.1 ENE 17 26 9 14 1012.4 1009.4 0.0
19/04:30pm 34.7 30.4 6.9 18 15.6 SE 19 30 10 16 1012.3 1009.3 0.0
19/04:00pm 34.2 29.0 5.7 17 15.6 E 22 26 12 14 1012.3 1009.3 0.0
19/03:30pm 34.6 29.9 5.1 16 16.1 SE 19 30 10 16 1012.4 1009.4 0.0
19/03:00pm 34.1 29.5 5.6 17 15.6 ESE 19 39 10 21 1012.5 1009.5 0.0
19/02:30pm 33.6 28.9 5.2 17 15.4 ESE 19 32 10 17 1012.8 1009.8 0.0
19/02:00pm 34.3 29.3 6.6 18 15.4 ESE 22 26 12 14 1013.1 1010.1 0.0
19/01:30pm 34.4 29.6 5.8 17 15.7 E 20 37 11 20 1013.6 1010.6 0.0
19/01:00pm 33.1 28.3 4.8 17 15.2 ENE 19 32 10 17 1014.2 1011.1 0.0
19/12:30pm 33.9 29.6 7.0 19 15.0 ESE 19 30 10 16 1014.6 1011.6 0.0
19/12:00pm 33.2 28.0 7.2 20 14.5 E 24 35 13 19 1015.2 1012.2 0.0
19/11:30am 32.3 26.5 4.2 17 14.9 E 24 43 13 23 1015.6 1012.6 0.0
19/11:00am 31.8 26.5 6.8 21 13.8 ENE 24 33 13 18 1016.0 1013.0 0.0
19/10:30am 31.2 27.8 10.5 28 12.1 ENE 19 30 10 16 1016.3 1013.3 0.0
19/10:00am 31.1 27.7 10.4 28 12.0 ENE 19 26 10 14 1016.3 1013.3 0.0
19/09:30am 29.3 26.8 12.3 35 10.1 ENE 17 22 9 12 1016.5 1013.4 0.0
19/09:00am 27.8 26.7 14.4 43 8.2 E 13 19 7 10 1016.8 1013.8 0.0
19/08:30am 25.8 25.8 17.2 59 5.4 E 13 17 7 9 1016.8 1013.8 0.0
19/08:00am 24.3 24.6 17.1 64 4.5 ESE 11 15 6 8 1016.5 1013.4 0.0
19/07:30am 23.4 23.6 16.7 66 4.2 ESE 11 13 6 7 1016.3 1013.3 0.0
19/07:00am 23.0 23.6 16.8 68 3.9 SE 9 15 5 8 1015.9 1012.9 0.0
19/06:30am 21.9 23.0 16.6 72 3.3 E 6 9 3 5 1015.4 1012.4 0.0
19/06:00am 22.5 23.0 16.5 69 3.7 E 9 11 5 6 1015.1 1012.1 0.0
19/05:30am 22.8 23.3 16.6 68 3.8 E 9 13 5 7 1014.9 1011.9 0.0
19/05:00am 23.1 23.2 16.4 66 4.2 E 11 13 6 7 1014.8 1011.8 0.0
19/04:30am 23.6 23.4 16.6 65 4.4 E 13 17 7 9 1014.7 1011.7 0.0
19/04:00am 23.5 23.6 16.5 65 4.4 E 11 13 6 7 1014.7 1011.7 0.0
19/03:30am 23.9 24.3 16.4 63 4.7 E 9 13 5 7 1014.6 1011.6 0.0
19/03:00am 24.3 24.8 16.6 62 4.8 E 9 13 5 7 1014.6 1011.6 0.0
19/02:30am 24.8 24.9 16.5 60 5.2 E 11 13 6 7 1014.8 1011.8 0.0
19/02:00am 25.4 25.1 16.5 58 5.6 E 13 17 7 9 1015.0 1012.0 0.0
19/01:30am 25.9 25.5 16.2 55 6.1 E 13 20 7 11 1015.4 1012.4 0.0
19/01:00am 26.4 25.7 16.3 53 6.3 ENE 15 20 8 11 1015.8 1012.8 0.0
19/12:30am 26.4 25.9 16.9 56 6.0 ENE 15 26 8 14 1015.7 1012.7 0.0
19/12:00am 25.8 24.5 9.2 35 9.2 ENE 6 9 3 5 1015.9 1012.9 0.0
 
Date/Time
CST
Temp
°C
App
Temp
°C
Dew
Point
Rel
Hum
%
Delta-T
°C
Wind Press
QNH
hPa
Press
MSL
hPa
Rain
since 9 am
mm
Dir
 
Spd
km/h
Gust
km/h
Spd
kts
Gust
kts
18/11:30pm 26.8 24.9 6.8 28 10.7 E 6 9 3 5 1015.9 1012.9 0.0
18/11:00pm 27.1 26.5 7.5 29 10.7 CALM 0 0 0 0 1015.8 1012.8 0.0
18/10:30pm 26.3 23.4 4.7 25 11.1 NW 9 11 5 6 1015.3 1012.3 0.0
18/10:00pm 25.7 22.4 0.4 19 12.0 ESE 7 9 4 5 1015.0 1012.0 0.0
18/09:30pm 26.8 23.6 0.5 18 12.6 ESE 7 9 4 5 1014.7 1011.7 0.0
18/09:00pm 27.0 23.7 -0.1 17 12.9 ESE 7 7 4 4 1014.5 1011.5 0.0
18/08:30pm 28.9 25.5 -0.3 15 14.0 ESE 7 9 4 5 1014.3 1011.2 0.0
18/08:00pm 30.4 26.6 -1.1 13 15.1 ESE 9 11 5 6 1014.1 1011.0 0.0
18/07:30pm 31.1 27.7 -0.5 13 15.4 E 7 11 4 6 1013.9 1010.8 0.0
18/07:00pm 32.0 28.2 -0.9 12 16.0 E 9 13 5 7 1013.4 1010.4 0.0
18/06:30pm 33.1 29.6 -1.3 11 16.7 E 7 11 4 6 1013.1 1010.1 0.0
18/06:00pm 33.9 29.2 -2.0 10 17.4 ENE 13 17 7 9 1012.6 1009.6 0.0
18/05:30pm 34.3 29.2 -1.7 10 17.6 E 15 24 8 13 1012.2 1009.1 0.0
18/05:00pm 34.8 30.2 -1.3 10 17.8 NE 13 22 7 12 1011.8 1008.7 0.0
18/04:30pm 34.9 29.7 -2.6 9 18.1 NE 15 24 8 13 1011.7 1008.6 0.0
18/04:00pm 35.7 31.4 -2.0 9 18.4 E 11 30 6 16 1011.7 1008.6 0.0
18/03:30pm 35.2 30.2 -4.0 8 18.5 E 13 20 7 11 1012.1 1009.0 0.0
18/03:00pm 34.4 28.8 -3.0 9 17.9 E 17 32 9 17 1012.2 1009.1 0.0

Other Formats:

Comma delimited format used in spreadsheet applications
http://www.bom.gov.au/fwo/IDD60801/IDD60801.94141.axf

JavaScript Object Notation format (JSON) in row-major order
http://www.bom.gov.au/fwo/IDD60801/IDD60801.94141.json